sensor_id;sensor_type;location;lat;lon;timestamp;P1;durP1;ratioP1;P2;durP2;ratioP2
48588;SDS011;34369;51.174;6.738;2022-07-23T00:02:21;23.17;;;21.00;;
48588;SDS011;34369;51.174;6.738;2022-07-23T00:04:59;24.40;;;21.83;;
48588;SDS011;34369;51.174;6.738;2022-07-23T00:07:32;22.08;;;19.90;;
48588;SDS011;34369;51.174;6.738;2022-07-23T00:10:06;23.48;;;21.08;;
48588;SDS011;34369;51.174;6.738;2022-07-23T00:12:40;24.50;;;21.90;;
48588;SDS011;34369;51.174;6.738;2022-07-23T00:15:12;25.15;;;22.40;;
48588;SDS011;34369;51.174;6.738;2022-07-23T00:17:44;24.52;;;22.02;;
48588;SDS011;34369;51.174;6.738;2022-07-23T00:20:17;24.55;;;21.88;;
48588;SDS011;34369;51.174;6.738;2022-07-23T00:22:51;24.02;;;21.60;;
48588;SDS011;34369;51.174;6.738;2022-07-23T00:25:27;24.08;;;21.58;;
48588;SDS011;34369;51.174;6.738;2022-07-23T00:28:00;23.48;;;21.02;;
48588;SDS011;34369;51.174;6.738;2022-07-23T00:30:33;22.75;;;20.48;;
48588;SDS011;34369;51.174;6.738;2022-07-23T00:33:06;24.02;;;21.63;;
48588;SDS011;34369;51.174;6.738;2022-07-23T00:35:40;22.27;;;19.92;;
48588;SDS011;34369;51.174;6.738;2022-07-23T00:38:13;24.75;;;22.17;;
48588;SDS011;34369;51.174;6.738;2022-07-23T00:40:47;22.42;;;20.23;;
48588;SDS011;34369;51.174;6.738;2022-07-23T00:43:19;21.65;;;19.65;;
48588;SDS011;34369;51.174;6.738;2022-07-23T00:45:52;23.95;;;21.65;;
48588;SDS011;34369;51.174;6.738;2022-07-23T00:48:24;23.90;;;21.60;;
48588;SDS011;34369;51.174;6.738;2022-07-23T00:50:56;22.98;;;20.67;;
48588;SDS011;34369;51.174;6.738;2022-07-23T00:53:28;23.83;;;21.40;;
48588;SDS011;34369;51.174;6.738;2022-07-23T00:56:03;23.55;;;21.17;;
48588;SDS011;34369;51.174;6.738;2022-07-23T00:58:36;24.40;;;21.75;;
48588;SDS011;34369;51.174;6.738;2022-07-23T01:01:11;24.17;;;21.80;;
48588;SDS011;34369;51.174;6.738;2022-07-23T01:03:43;24.15;;;21.52;;
48588;SDS011;34369;51.174;6.738;2022-07-23T01:06:16;22.60;;;20.38;;
48588;SDS011;34369;51.174;6.738;2022-07-23T01:08:48;22.80;;;20.40;;
48588;SDS011;34369;51.174;6.738;2022-07-23T01:11:23;24.40;;;22.08;;
48588;SDS011;34369;51.174;6.738;2022-07-23T01:13:57;25.02;;;22.20;;
48588;SDS011;34369;51.174;6.738;2022-07-23T01:16:29;22.92;;;20.70;;
48588;SDS011;34369;51.174;6.738;2022-07-23T01:19:01;24.40;;;21.83;;
48588;SDS011;34369;51.174;6.738;2022-07-23T01:21:35;24.40;;;22.00;;
48588;SDS011;34369;51.174;6.738;2022-07-23T01:24:10;24.77;;;22.42;;
48588;SDS011;34369;51.174;6.738;2022-07-23T01:26:44;25.38;;;22.67;;
48588;SDS011;34369;51.174;6.738;2022-07-23T01:29:17;24.52;;;22.02;;
48588;SDS011;34369;51.174;6.738;2022-07-23T01:31:51;24.75;;;22.25;;
48588;SDS011;34369;51.174;6.738;2022-07-23T01:34:23;24.75;;;22.35;;
48588;SDS011;34369;51.174;6.738;2022-07-23T01:36:55;23.95;;;21.65;;
48588;SDS011;34369;51.174;6.738;2022-07-23T01:39:28;25.02;;;22.50;;
48588;SDS011;34369;51.174;6.738;2022-07-23T01:42:00;23.95;;;21.60;;
48588;SDS011;34369;51.174;6.738;2022-07-23T01:44:33;25.02;;;22.30;;
48588;SDS011;34369;51.174;6.738;2022-07-23T01:47:05;22.85;;;20.65;;
48588;SDS011;34369;51.174;6.738;2022-07-23T01:49:37;22.98;;;20.77;;
48588;SDS011;34369;51.174;6.738;2022-07-23T01:52:09;23.75;;;21.52;;
48588;SDS011;34369;51.174;6.738;2022-07-23T01:54:43;25.30;;;22.80;;
48588;SDS011;34369;51.174;6.738;2022-07-23T01:57:15;24.77;;;22.38;;
48588;SDS011;34369;51.174;6.738;2022-07-23T01:59:47;26.08;;;23.48;;
48588;SDS011;34369;51.174;6.738;2022-07-23T02:02:19;24.42;;;22.08;;
48588;SDS011;34369;51.174;6.738;2022-07-23T02:04:51;24.05;;;21.75;;
48588;SDS011;34369;51.174;6.738;2022-07-23T02:07:24;22.90;;;20.65;;
48588;SDS011;34369;51.174;6.738;2022-07-23T02:09:57;24.02;;;21.73;;
48588;SDS011;34369;51.174;6.738;2022-07-23T02:12:29;26.33;;;23.60;;
48588;SDS011;34369;51.174;6.738;2022-07-23T02:15:02;23.77;;;21.38;;
48588;SDS011;34369;51.174;6.738;2022-07-23T02:17:35;24.60;;;22.20;;
48588;SDS011;34369;51.174;6.738;2022-07-23T02:20:09;25.00;;;22.50;;
48588;SDS011;34369;51.174;6.738;2022-07-23T02:22:42;24.42;;;21.98;;
48588;SDS011;34369;51.174;6.738;2022-07-23T02:25:16;24.30;;;21.70;;
48588;SDS011;34369;51.174;6.738;2022-07-23T02:27:48;24.20;;;21.90;;
48588;SDS011;34369;51.174;6.738;2022-07-23T02:30:20;24.30;;;21.92;;
48588;SDS011;34369;51.174;6.738;2022-07-23T02:32:52;25.33;;;22.77;;
48588;SDS011;34369;51.174;6.738;2022-07-23T02:35:24;25.02;;;22.65;;
48588;SDS011;34369;51.174;6.738;2022-07-23T02:37:56;24.42;;;22.05;;
48588;SDS011;34369;51.174;6.738;2022-07-23T02:40:30;25.95;;;23.35;;
48588;SDS011;34369;51.174;6.738;2022-07-23T02:43:02;24.00;;;21.75;;
48588;SDS011;34369;51.174;6.738;2022-07-23T02:45:34;26.42;;;23.48;;
48588;SDS011;34369;51.174;6.738;2022-07-23T02:48:06;24.70;;;22.17;;
48588;SDS011;34369;51.174;6.738;2022-07-23T02:50:38;26.25;;;23.58;;
48588;SDS011;34369;51.174;6.738;2022-07-23T02:53:10;25.85;;;23.35;;
48588;SDS011;34369;51.174;6.738;2022-07-23T02:55:44;24.88;;;22.48;;
48588;SDS011;34369;51.174;6.738;2022-07-23T02:58:16;26.10;;;23.38;;
48588;SDS011;34369;51.174;6.738;2022-07-23T03:00:48;24.35;;;22.05;;
48588;SDS011;34369;51.174;6.738;2022-07-23T03:03:20;25.25;;;22.75;;
48588;SDS011;34369;51.174;6.738;2022-07-23T03:05:52;25.48;;;22.90;;
48588;SDS011;34369;51.174;6.738;2022-07-23T03:08:25;25.73;;;23.33;;
48588;SDS011;34369;51.174;6.738;2022-07-23T03:10:58;23.90;;;21.60;;
48588;SDS011;34369;51.174;6.738;2022-07-23T03:13:30;24.10;;;21.80;;
48588;SDS011;34369;51.174;6.738;2022-07-23T03:16:03;24.52;;;22.00;;
48588;SDS011;34369;51.174;6.738;2022-07-23T03:18:37;33.08;;;22.60;;
48588;SDS011;34369;51.174;6.738;2022-07-23T03:21:09;23.08;;;20.88;;
48588;SDS011;34369;51.174;6.738;2022-07-23T03:23:42;24.50;;;22.17;;
48588;SDS011;34369;51.174;6.738;2022-07-23T03:26:16;22.83;;;20.75;;
48588;SDS011;34369;51.174;6.738;2022-07-23T03:28:50;28.30;;;19.83;;
48588;SDS011;34369;51.174;6.738;2022-07-23T03:31:23;39.67;;;19.67;;
48588;SDS011;34369;51.174;6.738;2022-07-23T03:33:55;22.55;;;20.40;;
48588;SDS011;34369;51.174;6.738;2022-07-23T03:36:29;23.23;;;20.63;;
48588;SDS011;34369;51.174;6.738;2022-07-23T03:39:02;21.40;;;19.42;;
48588;SDS011;34369;51.174;6.738;2022-07-23T03:41:36;21.55;;;19.65;;
48588;SDS011;34369;51.174;6.738;2022-07-23T03:44:09;21.13;;;19.23;;
48588;SDS011;34369;51.174;6.738;2022-07-23T03:46:42;23.02;;;20.83;;
48588;SDS011;34369;51.174;6.738;2022-07-23T03:49:16;23.35;;;20.92;;
48588;SDS011;34369;51.174;6.738;2022-07-23T03:51:48;22.45;;;20.20;;
48588;SDS011;34369;51.174;6.738;2022-07-23T03:54:21;23.02;;;20.73;;
48588;SDS011;34369;51.174;6.738;2022-07-23T03:56:56;22.13;;;19.92;;
48588;SDS011;34369;51.174;6.738;2022-07-23T03:59:29;22.52;;;20.15;;
48588;SDS011;34369;51.174;6.738;2022-07-23T04:02:02;22.92;;;20.83;;
48588;SDS011;34369;51.174;6.738;2022-07-23T04:04:35;29.08;;;20.77;;
48588;SDS011;34369;51.174;6.738;2022-07-23T04:07:08;28.70;;;21.48;;
48588;SDS011;34369;51.174;6.738;2022-07-23T04:09:40;23.10;;;20.77;;
48588;SDS011;34369;51.174;6.738;2022-07-23T04:12:15;27.08;;;21.10;;
48588;SDS011;34369;51.174;6.738;2022-07-23T04:14:48;22.80;;;20.45;;
48588;SDS011;34369;51.174;6.738;2022-07-23T04:17:21;21.05;;;19.15;;
48588;SDS011;34369;51.174;6.738;2022-07-23T04:19:54;21.73;;;19.45;;
48588;SDS011;34369;51.174;6.738;2022-07-23T04:22:29;22.00;;;19.90;;
48588;SDS011;34369;51.174;6.738;2022-07-23T04:25:03;21.55;;;19.55;;
48588;SDS011;34369;51.174;6.738;2022-07-23T04:27:42;19.77;;;18.00;;
48588;SDS011;34369;51.174;6.738;2022-07-23T04:30:15;20.63;;;18.80;;
48588;SDS011;34369;51.174;6.738;2022-07-23T04:32:48;22.05;;;20.15;;
48588;SDS011;34369;51.174;6.738;2022-07-23T04:35:21;22.23;;;20.15;;
48588;SDS011;34369;51.174;6.738;2022-07-23T04:37:54;21.58;;;19.58;;
48588;SDS011;34369;51.174;6.738;2022-07-23T04:40:29;23.23;;;20.95;;
48588;SDS011;34369;51.174;6.738;2022-07-23T04:43:04;22.48;;;20.15;;
48588;SDS011;34369;51.174;6.738;2022-07-23T04:45:37;21.92;;;19.88;;
48588;SDS011;34369;51.174;6.738;2022-07-23T04:48:10;22.52;;;20.35;;
48588;SDS011;34369;51.174;6.738;2022-07-23T04:50:43;23.98;;;21.60;;
48588;SDS011;34369;51.174;6.738;2022-07-23T04:53:17;25.42;;;22.88;;
48588;SDS011;34369;51.174;6.738;2022-07-23T04:55:50;25.90;;;23.35;;
48588;SDS011;34369;51.174;6.738;2022-07-23T04:58:25;25.88;;;23.23;;
48588;SDS011;34369;51.174;6.738;2022-07-23T05:00:58;24.58;;;22.17;;
48588;SDS011;34369;51.174;6.738;2022-07-23T05:03:32;26.05;;;23.45;;
48588;SDS011;34369;51.174;6.738;2022-07-23T05:06:05;24.55;;;22.15;;
48588;SDS011;34369;51.174;6.738;2022-07-23T05:08:38;25.58;;;23.08;;
48588;SDS011;34369;51.174;6.738;2022-07-23T05:11:13;25.00;;;22.38;;
48588;SDS011;34369;51.174;6.738;2022-07-23T05:13:50;26.77;;;23.90;;
48588;SDS011;34369;51.174;6.738;2022-07-23T05:16:23;28.77;;;22.98;;
48588;SDS011;34369;51.174;6.738;2022-07-23T05:18:57;25.10;;;22.58;;
48588;SDS011;34369;51.174;6.738;2022-07-23T05:21:32;26.50;;;23.90;;
48588;SDS011;34369;51.174;6.738;2022-07-23T05:24:05;25.80;;;23.08;;
48588;SDS011;34369;51.174;6.738;2022-07-23T05:26:39;24.92;;;22.45;;
48588;SDS011;34369;51.174;6.738;2022-07-23T05:29:13;25.05;;;22.55;;
48588;SDS011;34369;51.174;6.738;2022-07-23T05:31:46;24.48;;;22.08;;
48588;SDS011;34369;51.174;6.738;2022-07-23T05:34:19;24.15;;;21.65;;
48588;SDS011;34369;51.174;6.738;2022-07-23T05:36:53;23.73;;;21.40;;
48588;SDS011;34369;51.174;6.738;2022-07-23T05:39:24;24.75;;;22.30;;
48588;SDS011;34369;51.174;6.738;2022-07-23T05:41:56;24.48;;;22.17;;
48588;SDS011;34369;51.174;6.738;2022-07-23T05:44:30;25.67;;;22.90;;
48588;SDS011;34369;51.174;6.738;2022-07-23T05:47:02;24.70;;;22.20;;
48588;SDS011;34369;51.174;6.738;2022-07-23T05:49:36;23.58;;;21.17;;
48588;SDS011;34369;51.174;6.738;2022-07-23T05:52:09;24.73;;;22.45;;
48588;SDS011;34369;51.174;6.738;2022-07-23T05:54:41;25.52;;;22.90;;
48588;SDS011;34369;51.174;6.738;2022-07-23T05:57:13;23.00;;;20.60;;
48588;SDS011;34369;51.174;6.738;2022-07-23T05:59:46;24.60;;;22.20;;
48588;SDS011;34369;51.174;6.738;2022-07-23T06:02:18;24.77;;;22.20;;
48588;SDS011;34369;51.174;6.738;2022-07-23T06:04:51;24.80;;;22.50;;
48588;SDS011;34369;51.174;6.738;2022-07-23T06:07:23;24.90;;;22.42;;
48588;SDS011;34369;51.174;6.738;2022-07-23T06:09:55;23.88;;;21.48;;
48588;SDS011;34369;51.174;6.738;2022-07-23T06:12:28;24.30;;;21.67;;
48588;SDS011;34369;51.174;6.738;2022-07-23T06:15:02;24.88;;;22.23;;
48588;SDS011;34369;51.174;6.738;2022-07-23T06:17:35;24.88;;;22.27;;
48588;SDS011;34369;51.174;6.738;2022-07-23T06:20:09;25.08;;;22.55;;
48588;SDS011;34369;51.174;6.738;2022-07-23T06:22:42;26.33;;;23.52;;
48588;SDS011;34369;51.174;6.738;2022-07-23T06:25:14;24.40;;;21.95;;
48588;SDS011;34369;51.174;6.738;2022-07-23T06:27:47;25.27;;;22.67;;
48588;SDS011;34369;51.174;6.738;2022-07-23T06:30:21;24.73;;;22.33;;
48588;SDS011;34369;51.174;6.738;2022-07-23T06:32:54;25.27;;;22.65;;
48588;SDS011;34369;51.174;6.738;2022-07-23T06:35:26;26.10;;;23.40;;
48588;SDS011;34369;51.174;6.738;2022-07-23T06:37:58;24.50;;;21.90;;
48588;SDS011;34369;51.174;6.738;2022-07-23T06:40:30;25.80;;;23.20;;
48588;SDS011;34369;51.174;6.738;2022-07-23T06:43:03;25.95;;;23.23;;
48588;SDS011;34369;51.174;6.738;2022-07-23T06:45:36;25.15;;;22.45;;
48588;SDS011;34369;51.174;6.738;2022-07-23T06:48:08;24.27;;;21.77;;
48588;SDS011;34369;51.174;6.738;2022-07-23T06:50:40;25.77;;;23.08;;
48588;SDS011;34369;51.174;6.738;2022-07-23T06:53:13;26.17;;;23.45;;
48588;SDS011;34369;51.174;6.738;2022-07-23T06:55:45;27.33;;;24.00;;
48588;SDS011;34369;51.174;6.738;2022-07-23T06:58:17;28.65;;;24.05;;
48588;SDS011;34369;51.174;6.738;2022-07-23T07:00:50;28.50;;;24.10;;
48588;SDS011;34369;51.174;6.738;2022-07-23T07:03:22;26.75;;;23.48;;
48588;SDS011;34369;51.174;6.738;2022-07-23T07:05:54;26.65;;;23.77;;
48588;SDS011;34369;51.174;6.738;2022-07-23T07:08:27;30.27;;;23.38;;
48588;SDS011;34369;51.174;6.738;2022-07-23T07:10:59;29.42;;;23.83;;
48588;SDS011;34369;51.174;6.738;2022-07-23T07:13:31;28.65;;;23.17;;
48588;SDS011;34369;51.174;6.738;2022-07-23T07:16:04;25.27;;;22.00;;
48588;SDS011;34369;51.174;6.738;2022-07-23T07:18:36;29.65;;;22.45;;
48588;SDS011;34369;51.174;6.738;2022-07-23T07:21:08;27.17;;;22.40;;
48588;SDS011;34369;51.174;6.738;2022-07-23T07:23:40;27.52;;;23.00;;
48588;SDS011;34369;51.174;6.738;2022-07-23T07:26:12;25.17;;;22.45;;
48588;SDS011;34369;51.174;6.738;2022-07-23T07:28:44;27.52;;;23.23;;
48588;SDS011;34369;51.174;6.738;2022-07-23T07:31:17;27.20;;;22.13;;
48588;SDS011;34369;51.174;6.738;2022-07-23T07:33:49;25.50;;;22.38;;
48588;SDS011;34369;51.174;6.738;2022-07-23T07:36:21;24.55;;;21.95;;
48588;SDS011;34369;51.174;6.738;2022-07-23T07:38:53;24.83;;;22.02;;
48588;SDS011;34369;51.174;6.738;2022-07-23T07:41:25;24.10;;;21.35;;
48588;SDS011;34369;51.174;6.738;2022-07-23T07:43:57;24.60;;;21.20;;
48588;SDS011;34369;51.174;6.738;2022-07-23T07:46:30;25.65;;;22.33;;
48588;SDS011;34369;51.174;6.738;2022-07-23T07:49:02;26.48;;;22.13;;
48588;SDS011;34369;51.174;6.738;2022-07-23T07:51:34;25.02;;;22.00;;
48588;SDS011;34369;51.174;6.738;2022-07-23T07:54:06;26.48;;;21.45;;
48588;SDS011;34369;51.174;6.738;2022-07-23T07:56:37;22.80;;;20.27;;
48588;SDS011;34369;51.174;6.738;2022-07-23T07:59:09;22.27;;;19.60;;
48588;SDS011;34369;51.174;6.738;2022-07-23T08:01:43;22.17;;;19.75;;
48588;SDS011;34369;51.174;6.738;2022-07-23T08:04:15;20.88;;;17.60;;
48588;SDS011;34369;51.174;6.738;2022-07-23T08:06:47;21.38;;;17.65;;
48588;SDS011;34369;51.174;6.738;2022-07-23T08:09:18;22.83;;;18.02;;
48588;SDS011;34369;51.174;6.738;2022-07-23T08:11:50;19.40;;;16.13;;
48588;SDS011;34369;51.174;6.738;2022-07-23T08:14:23;19.52;;;17.55;;
48588;SDS011;34369;51.174;6.738;2022-07-23T08:16:56;19.38;;;14.98;;
48588;SDS011;34369;51.174;6.738;2022-07-23T08:19:28;20.08;;;16.77;;
48588;SDS011;34369;51.174;6.738;2022-07-23T08:21:59;18.85;;;16.45;;
48588;SDS011;34369;51.174;6.738;2022-07-23T08:24:31;17.63;;;15.75;;
48588;SDS011;34369;51.174;6.738;2022-07-23T08:27:03;21.55;;;17.15;;
48588;SDS011;34369;51.174;6.738;2022-07-23T08:29:35;20.13;;;16.52;;
48588;SDS011;34369;51.174;6.738;2022-07-23T08:32:08;17.70;;;15.75;;
48588;SDS011;34369;51.174;6.738;2022-07-23T08:34:40;18.23;;;16.33;;
48588;SDS011;34369;51.174;6.738;2022-07-23T08:37:12;18.98;;;15.75;;
48588;SDS011;34369;51.174;6.738;2022-07-23T08:39:44;17.63;;;15.70;;
48588;SDS011;34369;51.174;6.738;2022-07-23T08:42:16;20.20;;;15.57;;
48588;SDS011;34369;51.174;6.738;2022-07-23T08:44:54;17.15;;;15.00;;
48588;SDS011;34369;51.174;6.738;2022-07-23T08:47:27;16.38;;;14.18;;
48588;SDS011;34369;51.174;6.738;2022-07-23T08:50:03;17.70;;;14.65;;
48588;SDS011;34369;51.174;6.738;2022-07-23T08:52:36;18.65;;;14.43;;
48588;SDS011;34369;51.174;6.738;2022-07-23T08:55:10;17.80;;;14.30;;
48588;SDS011;34369;51.174;6.738;2022-07-23T08:57:46;18.83;;;14.30;;
48588;SDS011;34369;51.174;6.738;2022-07-23T09:00:21;16.27;;;13.88;;
48588;SDS011;34369;51.174;6.738;2022-07-23T09:02:57;16.02;;;13.93;;
48588;SDS011;34369;51.174;6.738;2022-07-23T09:05:31;15.00;;;12.88;;
48588;SDS011;34369;51.174;6.738;2022-07-23T09:08:07;14.68;;;12.32;;
48588;SDS011;34369;51.174;6.738;2022-07-23T09:10:43;15.82;;;12.68;;
48588;SDS011;34369;51.174;6.738;2022-07-23T09:13:25;17.45;;;13.23;;
48588;SDS011;34369;51.174;6.738;2022-07-23T09:16:09;15.15;;;12.88;;
48588;SDS011;34369;51.174;6.738;2022-07-23T09:18:45;16.15;;;12.30;;
48588;SDS011;34369;51.174;6.738;2022-07-23T09:21:20;13.73;;;12.32;;
48588;SDS011;34369;51.174;6.738;2022-07-23T09:23:56;13.32;;;11.82;;
48588;SDS011;34369;51.174;6.738;2022-07-23T09:29:06;14.02;;;12.10;;
48588;SDS011;34369;51.174;6.738;2022-07-23T09:31:46;13.35;;;11.15;;
48588;SDS011;34369;51.174;6.738;2022-07-23T09:34:24;13.68;;;11.10;;
48588;SDS011;34369;51.174;6.738;2022-07-23T09:36:58;14.00;;;11.32;;
48588;SDS011;34369;51.174;6.738;2022-07-23T09:39:46;13.38;;;11.98;;
48588;SDS011;34369;51.174;6.738;2022-07-23T09:42:20;13.38;;;11.82;;
48588;SDS011;34369;51.174;6.738;2022-07-23T09:44:55;13.87;;;11.63;;
48588;SDS011;34369;51.174;6.738;2022-07-23T09:47:30;13.63;;;12.23;;
48588;SDS011;34369;51.174;6.738;2022-07-23T09:50:07;14.57;;;12.05;;
48588;SDS011;34369;51.174;6.738;2022-07-23T09:52:43;15.32;;;12.75;;
48588;SDS011;34369;51.174;6.738;2022-07-23T09:55:18;14.80;;;13.27;;
48588;SDS011;34369;51.174;6.738;2022-07-23T09:57:50;13.98;;;12.55;;
48588;SDS011;34369;51.174;6.738;2022-07-23T10:00:23;15.80;;;12.85;;
48588;SDS011;34369;51.174;6.738;2022-07-23T10:02:56;14.43;;;13.02;;
48588;SDS011;34369;51.174;6.738;2022-07-23T10:05:36;14.02;;;12.63;;
48588;SDS011;34369;51.174;6.738;2022-07-23T10:08:10;14.43;;;13.02;;
48588;SDS011;34369;51.174;6.738;2022-07-23T10:10:45;16.17;;;14.02;;
48588;SDS011;34369;51.174;6.738;2022-07-23T10:13:18;14.63;;;13.15;;
48588;SDS011;34369;51.174;6.738;2022-07-23T10:16:09;13.85;;;12.45;;
48588;SDS011;34369;51.174;6.738;2022-07-23T10:18:41;15.15;;;12.98;;
48588;SDS011;34369;51.174;6.738;2022-07-23T10:21:18;14.60;;;13.18;;
48588;SDS011;34369;51.174;6.738;2022-07-23T10:24:04;14.55;;;12.70;;
48588;SDS011;34369;51.174;6.738;2022-07-23T10:26:52;13.88;;;12.13;;
48588;SDS011;34369;51.174;6.738;2022-07-23T10:29:39;13.77;;;12.38;;
48588;SDS011;34369;51.174;6.738;2022-07-23T10:32:23;14.38;;;12.90;;
48588;SDS011;34369;51.174;6.738;2022-07-23T10:35:10;14.13;;;12.43;;
48588;SDS011;34369;51.174;6.738;2022-07-23T10:37:54;14.43;;;12.80;;
48588;SDS011;34369;51.174;6.738;2022-07-23T10:40:34;14.40;;;12.90;;
48588;SDS011;34369;51.174;6.738;2022-07-23T10:43:08;13.95;;;12.45;;
48588;SDS011;34369;51.174;6.738;2022-07-23T10:45:47;13.82;;;12.43;;
48588;SDS011;34369;51.174;6.738;2022-07-23T10:48:20;13.68;;;12.27;;
48588;SDS011;34369;51.174;6.738;2022-07-23T10:51:09;14.63;;;13.00;;
48588;SDS011;34369;51.174;6.738;2022-07-23T10:53:54;13.63;;;12.32;;
48588;SDS011;34369;51.174;6.738;2022-07-23T11:03:02;13.05;;;11.43;;
48588;SDS011;34369;51.174;6.738;2022-07-23T11:05:40;12.18;;;10.63;;
48588;SDS011;34369;51.174;6.738;2022-07-23T11:08:16;13.18;;;11.02;;
48588;SDS011;34369;51.174;6.738;2022-07-23T11:10:53;13.18;;;11.50;;
48588;SDS011;34369;51.174;6.738;2022-07-23T11:13:39;12.20;;;10.90;;
48588;SDS011;34369;51.174;6.738;2022-07-23T11:16:20;12.82;;;10.63;;
48588;SDS011;34369;51.174;6.738;2022-07-23T11:18:57;21.33;;;11.52;;
48588;SDS011;34369;51.174;6.738;2022-07-23T11:21:44;14.38;;;11.50;;
48588;SDS011;34369;51.174;6.738;2022-07-23T11:24:22;12.57;;;10.60;;
48588;SDS011;34369;51.174;6.738;2022-07-23T11:26:58;12.65;;;11.32;;
48588;SDS011;34369;51.174;6.738;2022-07-23T11:29:43;12.43;;;10.90;;
48588;SDS011;34369;51.174;6.738;2022-07-23T11:32:31;13.15;;;10.98;;
48588;SDS011;34369;51.174;6.738;2022-07-23T11:35:18;12.73;;;10.50;;
48588;SDS011;34369;51.174;6.738;2022-07-23T11:38:02;13.38;;;10.23;;
48588;SDS011;34369;51.174;6.738;2022-07-23T11:40:36;13.00;;;10.93;;
48588;SDS011;34369;51.174;6.738;2022-07-23T11:43:10;11.85;;;10.40;;
48588;SDS011;34369;51.174;6.738;2022-07-23T11:45:43;12.73;;;10.70;;
48588;SDS011;34369;51.174;6.738;2022-07-23T11:48:17;12.60;;;10.50;;
48588;SDS011;34369;51.174;6.738;2022-07-23T11:50:51;12.17;;;10.07;;
48588;SDS011;34369;51.174;6.738;2022-07-23T11:53:25;13.68;;;10.05;;
48588;SDS011;34369;51.174;6.738;2022-07-23T11:56:03;11.88;;;10.23;;
48588;SDS011;34369;51.174;6.738;2022-07-23T11:58:37;13.23;;;10.20;;
48588;SDS011;34369;51.174;6.738;2022-07-23T12:01:10;11.73;;;10.00;;
48588;SDS011;34369;51.174;6.738;2022-07-23T12:03:48;11.48;;;10.07;;
48588;SDS011;34369;51.174;6.738;2022-07-23T12:06:21;12.23;;;10.93;;
48588;SDS011;34369;51.174;6.738;2022-07-23T12:08:53;11.70;;;10.50;;
48588;SDS011;34369;51.174;6.738;2022-07-23T12:11:25;12.73;;;10.00;;
48588;SDS011;34369;51.174;6.738;2022-07-23T12:13:58;10.70;;;9.57;;
48588;SDS011;34369;51.174;6.738;2022-07-23T12:16:31;11.50;;;9.70;;
48588;SDS011;34369;51.174;6.738;2022-07-23T12:19:03;10.50;;;9.30;;
48588;SDS011;34369;51.174;6.738;2022-07-23T12:21:35;11.93;;;10.30;;
48588;SDS011;34369;51.174;6.738;2022-07-23T12:24:07;11.07;;;9.93;;
48588;SDS011;34369;51.174;6.738;2022-07-23T12:26:59;11.30;;;9.85;;
48588;SDS011;34369;51.174;6.738;2022-07-23T12:29:43;12.90;;;9.95;;
48588;SDS011;34369;51.174;6.738;2022-07-23T12:32:18;12.65;;;10.20;;
48588;SDS011;34369;51.174;6.738;2022-07-23T12:35:01;10.82;;;9.70;;
48588;SDS011;34369;51.174;6.738;2022-07-23T12:37:36;11.30;;;10.05;;
48588;SDS011;34369;51.174;6.738;2022-07-23T12:40:27;12.13;;;10.65;;
48588;SDS011;34369;51.174;6.738;2022-07-23T12:43:02;10.95;;;9.68;;
48588;SDS011;34369;51.174;6.738;2022-07-23T12:45:44;11.50;;;10.05;;
48588;SDS011;34369;51.174;6.738;2022-07-23T12:48:23;11.45;;;10.25;;
48588;SDS011;34369;51.174;6.738;2022-07-23T12:50:57;12.27;;;10.45;;
48588;SDS011;34369;51.174;6.738;2022-07-23T12:53:31;12.98;;;10.75;;
48588;SDS011;34369;51.174;6.738;2022-07-23T12:56:13;11.60;;;10.40;;
48588;SDS011;34369;51.174;6.738;2022-07-23T12:58:47;11.38;;;10.18;;
48588;SDS011;34369;51.174;6.738;2022-07-23T13:01:23;11.30;;;10.10;;
48588;SDS011;34369;51.174;6.738;2022-07-23T13:03:59;12.00;;;10.80;;
48588;SDS011;34369;51.174;6.738;2022-07-23T13:06:34;12.25;;;11.05;;
48588;SDS011;34369;51.174;6.738;2022-07-23T13:09:08;12.63;;;10.60;;
48588;SDS011;34369;51.174;6.738;2022-07-23T13:11:42;11.70;;;10.25;;
48588;SDS011;34369;51.174;6.738;2022-07-23T13:14:15;11.32;;;10.13;;
48588;SDS011;34369;51.174;6.738;2022-07-23T13:16:50;11.88;;;10.60;;
48588;SDS011;34369;51.174;6.738;2022-07-23T13:19:23;10.53;;;9.43;;
48588;SDS011;34369;51.174;6.738;2022-07-23T13:21:56;12.10;;;10.90;;
48588;SDS011;34369;51.174;6.738;2022-07-23T13:24:28;11.93;;;10.25;;
48588;SDS011;34369;51.174;6.738;2022-07-23T13:27:00;12.07;;;10.88;;
48588;SDS011;34369;51.174;6.738;2022-07-23T13:29:31;11.63;;;10.20;;
48588;SDS011;34369;51.174;6.738;2022-07-23T13:32:05;11.60;;;10.30;;
48588;SDS011;34369;51.174;6.738;2022-07-23T13:34:37;11.75;;;10.50;;
48588;SDS011;34369;51.174;6.738;2022-07-23T13:37:09;11.20;;;10.10;;
48588;SDS011;34369;51.174;6.738;2022-07-23T13:39:43;13.70;;;10.88;;
48588;SDS011;34369;51.174;6.738;2022-07-23T13:42:15;11.48;;;10.27;;
48588;SDS011;34369;51.174;6.738;2022-07-23T13:44:46;11.90;;;10.63;;
48588;SDS011;34369;51.174;6.738;2022-07-23T13:47:19;12.40;;;11.20;;
48588;SDS011;34369;51.174;6.738;2022-07-23T13:49:51;11.52;;;10.35;;
48588;SDS011;34369;51.174;6.738;2022-07-23T13:52:23;11.60;;;10.40;;
48588;SDS011;34369;51.174;6.738;2022-07-23T13:54:55;12.25;;;10.35;;
48588;SDS011;34369;51.174;6.738;2022-07-23T13:57:27;11.38;;;10.18;;
48588;SDS011;34369;51.174;6.738;2022-07-23T13:59:59;11.65;;;10.45;;
48588;SDS011;34369;51.174;6.738;2022-07-23T14:02:34;11.60;;;10.40;;
48588;SDS011;34369;51.174;6.738;2022-07-23T14:05:07;12.45;;;11.15;;
48588;SDS011;34369;51.174;6.738;2022-07-23T14:07:41;12.38;;;11.18;;
48588;SDS011;34369;51.174;6.738;2022-07-23T14:10:14;12.05;;;10.85;;
48588;SDS011;34369;51.174;6.738;2022-07-23T14:12:47;11.95;;;10.52;;
48588;SDS011;34369;51.174;6.738;2022-07-23T14:15:20;11.80;;;10.52;;
48588;SDS011;34369;51.174;6.738;2022-07-23T14:17:55;11.95;;;10.75;;
48588;SDS011;34369;51.174;6.738;2022-07-23T14:20:27;13.10;;;11.80;;
48588;SDS011;34369;51.174;6.738;2022-07-23T14:22:59;12.55;;;11.25;;
48588;SDS011;34369;51.174;6.738;2022-07-23T14:25:31;12.55;;;10.60;;
48588;SDS011;34369;51.174;6.738;2022-07-23T14:28:03;12.48;;;10.93;;
48588;SDS011;34369;51.174;6.738;2022-07-23T14:30:35;14.50;;;10.68;;
48588;SDS011;34369;51.174;6.738;2022-07-23T14:33:08;13.00;;;11.70;;
48588;SDS011;34369;51.174;6.738;2022-07-23T14:35:40;12.27;;;11.00;;
48588;SDS011;34369;51.174;6.738;2022-07-23T14:38:12;11.40;;;10.30;;
48588;SDS011;34369;51.174;6.738;2022-07-23T14:40:44;12.88;;;11.55;;
48588;SDS011;34369;51.174;6.738;2022-07-23T14:43:15;12.02;;;10.82;;
48588;SDS011;34369;51.174;6.738;2022-07-23T14:45:47;12.10;;;10.90;;
48588;SDS011;34369;51.174;6.738;2022-07-23T14:48:20;12.48;;;10.63;;
48588;SDS011;34369;51.174;6.738;2022-07-23T14:50:52;12.27;;;10.70;;
48588;SDS011;34369;51.174;6.738;2022-07-23T14:53:24;12.38;;;11.10;;
48588;SDS011;34369;51.174;6.738;2022-07-23T14:55:56;11.80;;;10.60;;
48588;SDS011;34369;51.174;6.738;2022-07-23T14:58:28;12.00;;;10.80;;
48588;SDS011;34369;51.174;6.738;2022-07-23T15:01:00;12.50;;;10.68;;
48588;SDS011;34369;51.174;6.738;2022-07-23T15:03:34;11.88;;;10.68;;
48588;SDS011;34369;51.174;6.738;2022-07-23T15:06:06;12.32;;;10.35;;
48588;SDS011;34369;51.174;6.738;2022-07-23T15:08:38;11.80;;;10.60;;
48588;SDS011;34369;51.174;6.738;2022-07-23T15:11:10;11.90;;;10.70;;